MSC Claudia — 3FZA6 — position and weather

sailwx.info

Track history (hours):
 
Tides and Currents Weather Stations Pressure Air Temp Water Temp Dewpoint Dewpoint Depression Visibility Wind Speed Wind Dir Waves Ship Positions

MSC Claudia

Last reported at 2014-Sep-29 22:32 UTC. Time now 2014-Oct-01 00:03 UTC.
Position N 38°19' E 014°06'.

Length 292 m; draft 10.7 m.

Type: Ship (hazmat cat A). MMSI: 370606000.

Date/timePositionNaut miles runAvg speedWind from/ knotsBaromVisibWave heightAir tempDewpointWater temp
2014-Sep-29 22:32N 38°19' E 014°06'1717.1
2014-Sep-29 21:33N 38°19' E 013°45'1717.4
2014-Sep-29 20:33N 38°19' E 013°23'1717.4
2014-Sep-29 19:33N 38°19' E 013°01'1917.2
2014-Sep-29 18:26N 38°20' E 012°36'87019.4
2014-Sep-27 21:31N 35°59' W 005°21'20816.8
2014-Sep-27 09:07N 37°18' W 009°21'1119.5
2014-Sep-27 08:33N 37°27' W 009°14'1919.3
2014-Sep-27 07:33N 37°42' W 008°60'1515.1
2014-Sep-27 06:34N 37°56' W 008°51'1 0.5
2014-Sep-27 05:28N 37°56' W 008°51'0 0.0
2014-Sep-27 04:31N 37°56' W 008°51'0 0.0
2014-Sep-27 03:31N 37°56' W 008°51'0 0.0
2014-Sep-27 02:31N 37°56' W 008°51'0 0.0
2014-Sep-27 01:31N 37°56' W 008°51'0 0.0
2014-Sep-27 00:31N 37°56' W 008°51'0 0.0
2014-Sep-26 23:31N 37°56' W 008°51'0 0.0
2014-Sep-26 22:31N 37°56' W 008°51'0 0.0
2014-Sep-26 21:31N 37°56' W 008°51'0 0.0
2014-Sep-26 20:31N 37°56' W 008°51'0 0.0
2014-Sep-26 19:31N 37°56' W 008°51'0 0.0
2014-Sep-26 18:31N 37°56' W 008°51'0 0.0
2014-Sep-26 17:31N 37°56' W 008°51'1 0.7
2014-Sep-26 16:33N 37°56' W 008°51'5 4.9
2014-Sep-26 15:31N 37°52' W 008°55'2 2.2
2014-Sep-26 14:33N 37°53' W 008°58'1 1.3
2014-Sep-26 13:33N 37°53' W 008°59'1 1.1
2014-Sep-26 12:33N 37°53' W 009°00'1 1.0
2014-Sep-26 11:33N 37°54' W 009°02'1 1.4
2014-Sep-26 10:33N 37°54' W 009°03'1 0.6
2014-Sep-26 09:33N 37°54' W 009°04'0 0.4
2014-Sep-26 08:33N 37°55' W 009°04'1 1.2
2014-Sep-26 07:33N 37°55' W 009°06'1010.4
2014-Sep-26 06:33N 37°56' W 009°18'1010.1
2014-Sep-26 05:33N 37°57' W 009°31'10 9.9
2014-Sep-26 04:33N 37°58' W 009°44'1010.1
2014-Sep-26 03:33N 37°60' W 009°56'1010.0
2014-Sep-26 02:33N 38°03' W 010°08'10 9.9
2014-Sep-26 01:33N 38°07' W 010°20'1010.0
2014-Sep-26 00:33N 38°11' W 010°32'1010.4
2014-Sep-25 23:33N 38°15' W 010°44'1110.7
2014-Sep-25 22:32N 38°20' W 010°56'1110.6
2014-Sep-25 21:32N 38°24' W 011°08'1110.8
2014-Sep-25 20:33N 38°29' W 011°21'1010.5
2014-Sep-25 19:33N 38°33' W 011°33'1110.4
2014-Sep-25 18:31N 38°38' W 011°45'1010.0
2014-Sep-25 17:28N 38°42' W 011°57'  
Track history (hours):
 
Tides and Currents Weather Stations Pressure Air Temp Water Temp Dewpoint Dewpoint Depression Visibility Wind Speed Wind Dir Waves Ship Positions

MSC Claudia

Last reported at 2014-Sep-29 22:32 UTC. Time now 2014-Oct-01 00:03 UTC.
Position N 38°19' E 014°06'.

Length 292 m; draft 10.7 m.

Type: Ship (hazmat cat A). MMSI: 370606000.

Date/timePositionNaut miles runAvg speedWind from/ knotsBaromVisibWave heightAir tempDewpointWater temp
2014-Sep-29 22:32N 38°19' E 014°06'1717.1
2014-Sep-29 21:33N 38°19' E 013°45'1717.4
2014-Sep-29 20:33N 38°19' E 013°23'1717.4
2014-Sep-29 19:33N 38°19' E 013°01'1917.2
2014-Sep-29 18:26N 38°20' E 012°36'87019.4
2014-Sep-27 21:31N 35°59' W 005°21'20816.8
2014-Sep-27 09:07N 37°18' W 009°21'1119.5
2014-Sep-27 08:33N 37°27' W 009°14'1919.3
2014-Sep-27 07:33N 37°42' W 008°60'1515.1
2014-Sep-27 06:34N 37°56' W 008°51'1 0.5
2014-Sep-27 05:28N 37°56' W 008°51'0 0.0
2014-Sep-27 04:31N 37°56' W 008°51'0 0.0
2014-Sep-27 03:31N 37°56' W 008°51'0 0.0
2014-Sep-27 02:31N 37°56' W 008°51'0 0.0
2014-Sep-27 01:31N 37°56' W 008°51'0 0.0
2014-Sep-27 00:31N 37°56' W 008°51'0 0.0
2014-Sep-26 23:31N 37°56' W 008°51'0 0.0
2014-Sep-26 22:31N 37°56' W 008°51'0 0.0
2014-Sep-26 21:31N 37°56' W 008°51'0 0.0
2014-Sep-26 20:31N 37°56' W 008°51'0 0.0
2014-Sep-26 19:31N 37°56' W 008°51'0 0.0
2014-Sep-26 18:31N 37°56' W 008°51'0 0.0
2014-Sep-26 17:31N 37°56' W 008°51'1 0.7
2014-Sep-26 16:33N 37°56' W 008°51'5 4.9
2014-Sep-26 15:31N 37°52' W 008°55'2 2.2
2014-Sep-26 14:33N 37°53' W 008°58'1 1.3
2014-Sep-26 13:33N 37°53' W 008°59'1 1.1
2014-Sep-26 12:33N 37°53' W 009°00'1 1.0
2014-Sep-26 11:33N 37°54' W 009°02'1 1.4
2014-Sep-26 10:33N 37°54' W 009°03'1 0.6
2014-Sep-26 09:33N 37°54' W 009°04'0 0.4
2014-Sep-26 08:33N 37°55' W 009°04'1 1.2
2014-Sep-26 07:33N 37°55' W 009°06'1010.4
2014-Sep-26 06:33N 37°56' W 009°18'1010.1
2014-Sep-26 05:33N 37°57' W 009°31'10 9.9
2014-Sep-26 04:33N 37°58' W 009°44'1010.1
2014-Sep-26 03:33N 37°60' W 009°56'1010.0
2014-Sep-26 02:33N 38°03' W 010°08'10 9.9
2014-Sep-26 01:33N 38°07' W 010°20'1010.0
2014-Sep-26 00:33N 38°11' W 010°32'1010.4
2014-Sep-25 23:33N 38°15' W 010°44'1110.7
2014-Sep-25 22:32N 38°20' W 010°56'1110.6
2014-Sep-25 21:32N 38°24' W 011°08'1110.8
2014-Sep-25 20:33N 38°29' W 011°21'1010.5
2014-Sep-25 19:33N 38°33' W 011°33'1110.4
2014-Sep-25 18:31N 38°38' W 011°45'1010.0
2014-Sep-25 17:28N 38°42' W 011°57'  

Dump ship's entire track history